sensor_id;sensor_type;location;lat;lon;timestamp;P1;durP1;ratioP1;P2;durP2;ratioP2
826;SDS011;395;48.132;11.608;2022-07-22T00:02:13;15.97;;;14.47;;
826;SDS011;395;48.132;11.608;2022-07-22T00:04:38;15.17;;;13.87;;
826;SDS011;395;48.132;11.608;2022-07-22T00:07:04;15.33;;;13.80;;
826;SDS011;395;48.132;11.608;2022-07-22T00:09:30;14.47;;;12.93;;
826;SDS011;395;48.132;11.608;2022-07-22T00:11:56;15.23;;;13.90;;
826;SDS011;395;48.132;11.608;2022-07-22T00:14:21;17.00;;;15.30;;
826;SDS011;395;48.132;11.608;2022-07-22T00:16:47;15.10;;;13.70;;
826;SDS011;395;48.132;11.608;2022-07-22T00:19:13;15.10;;;13.80;;
826;SDS011;395;48.132;11.608;2022-07-22T00:21:38;15.23;;;13.73;;
826;SDS011;395;48.132;11.608;2022-07-22T00:24:05;14.93;;;13.60;;
826;SDS011;395;48.132;11.608;2022-07-22T00:26:31;15.70;;;14.30;;
826;SDS011;395;48.132;11.608;2022-07-22T00:28:57;14.60;;;13.30;;
826;SDS011;395;48.132;11.608;2022-07-22T00:31:23;14.07;;;12.80;;
826;SDS011;395;48.132;11.608;2022-07-22T00:33:49;14.87;;;13.47;;
826;SDS011;395;48.132;11.608;2022-07-22T00:36:15;15.47;;;13.97;;
826;SDS011;395;48.132;11.608;2022-07-22T00:38:40;14.67;;;13.27;;
826;SDS011;395;48.132;11.608;2022-07-22T00:41:06;14.13;;;12.87;;
826;SDS011;395;48.132;11.608;2022-07-22T00:46:26;13.80;;;12.40;;
826;SDS011;395;48.132;11.608;2022-07-22T00:48:53;14.53;;;13.20;;
826;SDS011;395;48.132;11.608;2022-07-22T00:51:19;14.70;;;13.30;;
826;SDS011;395;48.132;11.608;2022-07-22T00:53:47;15.27;;;13.60;;
826;SDS011;395;48.132;11.608;2022-07-22T00:56:13;14.90;;;13.57;;
826;SDS011;395;48.132;11.608;2022-07-22T00:58:40;14.73;;;13.33;;
826;SDS011;395;48.132;11.608;2022-07-22T01:01:06;14.30;;;13.00;;
826;SDS011;395;48.132;11.608;2022-07-22T01:03:32;15.67;;;14.10;;
826;SDS011;395;48.132;11.608;2022-07-22T01:05:58;14.10;;;12.63;;
826;SDS011;395;48.132;11.608;2022-07-22T01:08:24;15.60;;;14.10;;
826;SDS011;395;48.132;11.608;2022-07-22T01:10:49;15.60;;;14.10;;
826;SDS011;395;48.132;11.608;2022-07-22T01:13:15;14.60;;;13.40;;
826;SDS011;395;48.132;11.608;2022-07-22T01:15:41;15.60;;;14.10;;
826;SDS011;395;48.132;11.608;2022-07-22T01:18:07;14.53;;;13.13;;
826;SDS011;395;48.132;11.608;2022-07-22T01:20:33;14.30;;;12.90;;
826;SDS011;395;48.132;11.608;2022-07-22T01:23:02;13.97;;;12.73;;
826;SDS011;395;48.132;11.608;2022-07-22T01:25:28;14.43;;;13.23;;
826;SDS011;395;48.132;11.608;2022-07-22T01:27:54;13.57;;;12.33;;
826;SDS011;395;48.132;11.608;2022-07-22T01:30:20;13.87;;;12.67;;
826;SDS011;395;48.132;11.608;2022-07-22T01:32:46;13.80;;;12.40;;
826;SDS011;395;48.132;11.608;2022-07-22T01:35:11;14.83;;;13.37;;
826;SDS011;395;48.132;11.608;2022-07-22T01:37:37;14.53;;;13.27;;
826;SDS011;395;48.132;11.608;2022-07-22T01:40:03;13.37;;;12.03;;
826;SDS011;395;48.132;11.608;2022-07-22T01:42:29;14.47;;;12.97;;
826;SDS011;395;48.132;11.608;2022-07-22T01:44:55;14.70;;;13.23;;
826;SDS011;395;48.132;11.608;2022-07-22T01:47:21;15.00;;;13.50;;
826;SDS011;395;48.132;11.608;2022-07-22T01:49:46;14.53;;;13.23;;
826;SDS011;395;48.132;11.608;2022-07-22T01:52:12;14.40;;;13.10;;
826;SDS011;395;48.132;11.608;2022-07-22T01:54:38;14.33;;;12.93;;
826;SDS011;395;48.132;11.608;2022-07-22T01:57:03;15.90;;;14.20;;
826;SDS011;395;48.132;11.608;2022-07-22T01:59:29;15.20;;;13.60;;
826;SDS011;395;48.132;11.608;2022-07-22T02:01:55;13.60;;;12.30;;
826;SDS011;395;48.132;11.608;2022-07-22T02:04:20;13.57;;;12.40;;
826;SDS011;395;48.132;11.608;2022-07-22T02:06:46;14.77;;;13.37;;
826;SDS011;395;48.132;11.608;2022-07-22T02:09:12;14.67;;;13.27;;
826;SDS011;395;48.132;11.608;2022-07-22T02:11:38;14.57;;;13.27;;
826;SDS011;395;48.132;11.608;2022-07-22T02:14:04;14.80;;;13.40;;
826;SDS011;395;48.132;11.608;2022-07-22T02:16:29;15.27;;;13.97;;
826;SDS011;395;48.132;11.608;2022-07-22T02:18:55;14.10;;;12.77;;
826;SDS011;395;48.132;11.608;2022-07-22T02:21:21;13.73;;;12.50;;
826;SDS011;395;48.132;11.608;2022-07-22T02:23:47;15.43;;;13.90;;
826;SDS011;395;48.132;11.608;2022-07-22T02:26:13;13.93;;;12.73;;
826;SDS011;395;48.132;11.608;2022-07-22T02:28:38;15.03;;;13.43;;
826;SDS011;395;48.132;11.608;2022-07-22T02:31:04;13.90;;;12.70;;
826;SDS011;395;48.132;11.608;2022-07-22T02:33:30;14.77;;;13.17;;
826;SDS011;395;48.132;11.608;2022-07-22T02:35:56;14.43;;;13.13;;
826;SDS011;395;48.132;11.608;2022-07-22T02:38:21;13.77;;;12.47;;
826;SDS011;395;48.132;11.608;2022-07-22T02:40:47;13.97;;;12.70;;
826;SDS011;395;48.132;11.608;2022-07-22T02:43:13;13.00;;;11.70;;
826;SDS011;395;48.132;11.608;2022-07-22T02:45:38;13.90;;;12.63;;
826;SDS011;395;48.132;11.608;2022-07-22T02:48:04;14.50;;;13.20;;
826;SDS011;395;48.132;11.608;2022-07-22T02:50:30;14.70;;;13.20;;
826;SDS011;395;48.132;11.608;2022-07-22T02:52:57;14.27;;;12.97;;
826;SDS011;395;48.132;11.608;2022-07-22T02:55:23;13.77;;;12.37;;
826;SDS011;395;48.132;11.608;2022-07-22T02:57:50;13.80;;;12.50;;
826;SDS011;395;48.132;11.608;2022-07-22T03:00:16;14.47;;;12.97;;
826;SDS011;395;48.132;11.608;2022-07-22T03:02:42;15.30;;;13.87;;
826;SDS011;395;48.132;11.608;2022-07-22T03:05:08;14.77;;;13.30;;
826;SDS011;395;48.132;11.608;2022-07-22T03:07:34;13.90;;;12.70;;
826;SDS011;395;48.132;11.608;2022-07-22T03:10:00;13.83;;;12.63;;
826;SDS011;395;48.132;11.608;2022-07-22T03:12:25;15.63;;;14.23;;
826;SDS011;395;48.132;11.608;2022-07-22T03:14:51;14.10;;;12.90;;
826;SDS011;395;48.132;11.608;2022-07-22T03:17:17;13.97;;;12.77;;
826;SDS011;395;48.132;11.608;2022-07-22T03:19:42;13.50;;;12.30;;
826;SDS011;395;48.132;11.608;2022-07-22T03:22:08;14.90;;;13.60;;
826;SDS011;395;48.132;11.608;2022-07-22T03:24:34;14.30;;;13.00;;
826;SDS011;395;48.132;11.608;2022-07-22T03:27:00;15.83;;;13.73;;
826;SDS011;395;48.132;11.608;2022-07-22T03:29:25;14.63;;;13.30;;
826;SDS011;395;48.132;11.608;2022-07-22T03:31:51;13.87;;;12.50;;
826;SDS011;395;48.132;11.608;2022-07-22T03:34:17;14.40;;;13.00;;
826;SDS011;395;48.132;11.608;2022-07-22T03:36:42;14.37;;;13.07;;
826;SDS011;395;48.132;11.608;2022-07-22T03:39:08;13.77;;;12.50;;
826;SDS011;395;48.132;11.608;2022-07-22T03:41:34;14.30;;;13.00;;
826;SDS011;395;48.132;11.608;2022-07-22T03:44:00;13.93;;;12.57;;
826;SDS011;395;48.132;11.608;2022-07-22T03:46:25;13.70;;;12.40;;
826;SDS011;395;48.132;11.608;2022-07-22T03:48:51;14.33;;;13.03;;
826;SDS011;395;48.132;11.608;2022-07-22T03:51:17;14.40;;;13.10;;
826;SDS011;395;48.132;11.608;2022-07-22T03:53:42;13.87;;;12.67;;
826;SDS011;395;48.132;11.608;2022-07-22T03:56:08;14.93;;;13.53;;
826;SDS011;395;48.132;11.608;2022-07-22T03:58:34;13.43;;;12.33;;
826;SDS011;395;48.132;11.608;2022-07-22T04:00:59;14.07;;;12.80;;
826;SDS011;395;48.132;11.608;2022-07-22T04:03:25;14.80;;;13.50;;
826;SDS011;395;48.132;11.608;2022-07-22T04:05:51;14.67;;;13.33;;
826;SDS011;395;48.132;11.608;2022-07-22T04:08:17;15.27;;;13.87;;
826;SDS011;395;48.132;11.608;2022-07-22T04:10:44;15.30;;;13.93;;
826;SDS011;395;48.132;11.608;2022-07-22T04:13:10;14.43;;;13.10;;
826;SDS011;395;48.132;11.608;2022-07-22T04:15:36;14.47;;;13.10;;
826;SDS011;395;48.132;11.608;2022-07-22T04:18:02;15.20;;;13.77;;
826;SDS011;395;48.132;11.608;2022-07-22T04:20:28;14.50;;;13.20;;
826;SDS011;395;48.132;11.608;2022-07-22T04:22:53;13.90;;;12.70;;
826;SDS011;395;48.132;11.608;2022-07-22T04:25:19;15.70;;;14.13;;
826;SDS011;395;48.132;11.608;2022-07-22T04:27:45;15.83;;;14.37;;
826;SDS011;395;48.132;11.608;2022-07-22T04:30:10;16.37;;;14.90;;
826;SDS011;395;48.132;11.608;2022-07-22T04:32:37;15.03;;;13.70;;
826;SDS011;395;48.132;11.608;2022-07-22T04:35:03;15.90;;;14.40;;
826;SDS011;395;48.132;11.608;2022-07-22T04:37:30;14.33;;;12.93;;
826;SDS011;395;48.132;11.608;2022-07-22T04:39:55;15.30;;;13.90;;
826;SDS011;395;48.132;11.608;2022-07-22T04:42:21;14.80;;;13.40;;
826;SDS011;395;48.132;11.608;2022-07-22T04:44:47;15.47;;;13.87;;
826;SDS011;395;48.132;11.608;2022-07-22T04:47:12;14.70;;;13.20;;
826;SDS011;395;48.132;11.608;2022-07-22T04:49:38;16.43;;;15.00;;
826;SDS011;395;48.132;11.608;2022-07-22T04:52:04;16.13;;;14.47;;
826;SDS011;395;48.132;11.608;2022-07-22T04:54:30;15.13;;;13.73;;
826;SDS011;395;48.132;11.608;2022-07-22T04:56:55;15.83;;;14.10;;
826;SDS011;395;48.132;11.608;2022-07-22T04:59:21;15.77;;;13.70;;
826;SDS011;395;48.132;11.608;2022-07-22T05:01:47;14.90;;;13.53;;
826;SDS011;395;48.132;11.608;2022-07-22T05:04:13;15.50;;;14.20;;
826;SDS011;395;48.132;11.608;2022-07-22T05:06:38;14.80;;;13.40;;
826;SDS011;395;48.132;11.608;2022-07-22T05:09:04;14.97;;;13.30;;
826;SDS011;395;48.132;11.608;2022-07-22T05:11:30;16.13;;;14.47;;
826;SDS011;395;48.132;11.608;2022-07-22T05:13:56;16.93;;;15.23;;
826;SDS011;395;48.132;11.608;2022-07-22T05:16:22;15.17;;;13.77;;
826;SDS011;395;48.132;11.608;2022-07-22T05:18:48;16.50;;;15.00;;
826;SDS011;395;48.132;11.608;2022-07-22T05:21:14;17.10;;;15.40;;
826;SDS011;395;48.132;11.608;2022-07-22T05:23:39;16.83;;;15.10;;
826;SDS011;395;48.132;11.608;2022-07-22T05:26:05;17.37;;;14.60;;
826;SDS011;395;48.132;11.608;2022-07-22T05:28:31;16.90;;;15.17;;
826;SDS011;395;48.132;11.608;2022-07-22T05:30:56;17.10;;;15.57;;
826;SDS011;395;48.132;11.608;2022-07-22T05:33:22;17.07;;;15.57;;
826;SDS011;395;48.132;11.608;2022-07-22T05:35:48;16.17;;;14.57;;
826;SDS011;395;48.132;11.608;2022-07-22T05:38:14;17.00;;;15.43;;
826;SDS011;395;48.132;11.608;2022-07-22T05:40:39;16.17;;;14.60;;
826;SDS011;395;48.132;11.608;2022-07-22T05:43:05;15.20;;;13.70;;
826;SDS011;395;48.132;11.608;2022-07-22T05:45:31;15.17;;;13.67;;
826;SDS011;395;48.132;11.608;2022-07-22T05:47:56;14.83;;;13.43;;
826;SDS011;395;48.132;11.608;2022-07-22T05:50:22;14.63;;;13.23;;
826;SDS011;395;48.132;11.608;2022-07-22T05:52:48;15.10;;;13.80;;
826;SDS011;395;48.132;11.608;2022-07-22T05:55:13;15.60;;;14.10;;
826;SDS011;395;48.132;11.608;2022-07-22T05:57:39;15.10;;;13.20;;
826;SDS011;395;48.132;11.608;2022-07-22T06:00:05;14.70;;;13.40;;
826;SDS011;395;48.132;11.608;2022-07-22T06:02:31;15.17;;;13.77;;
826;SDS011;395;48.132;11.608;2022-07-22T06:04:57;15.83;;;13.70;;
826;SDS011;395;48.132;11.608;2022-07-22T06:07:25;14.80;;;13.50;;
826;SDS011;395;48.132;11.608;2022-07-22T06:09:51;16.73;;;14.20;;
826;SDS011;395;48.132;11.608;2022-07-22T06:12:17;15.40;;;14.00;;
826;SDS011;395;48.132;11.608;2022-07-22T06:14:44;15.80;;;14.20;;
826;SDS011;395;48.132;11.608;2022-07-22T06:17:11;14.87;;;13.23;;
826;SDS011;395;48.132;11.608;2022-07-22T06:19:37;13.33;;;12.13;;
826;SDS011;395;48.132;11.608;2022-07-22T06:22:03;16.60;;;14.80;;
826;SDS011;395;48.132;11.608;2022-07-22T06:24:29;14.40;;;13.00;;
826;SDS011;395;48.132;11.608;2022-07-22T06:26:55;14.23;;;12.90;;
826;SDS011;395;48.132;11.608;2022-07-22T06:29:21;14.10;;;12.70;;
826;SDS011;395;48.132;11.608;2022-07-22T06:31:47;13.60;;;12.30;;
826;SDS011;395;48.132;11.608;2022-07-22T06:34:13;16.80;;;15.10;;
826;SDS011;395;48.132;11.608;2022-07-22T06:36:39;14.83;;;13.27;;
826;SDS011;395;48.132;11.608;2022-07-22T06:39:05;14.10;;;12.70;;
826;SDS011;395;48.132;11.608;2022-07-22T06:41:30;13.13;;;11.90;;
826;SDS011;395;48.132;11.608;2022-07-22T06:43:56;13.70;;;12.50;;
826;SDS011;395;48.132;11.608;2022-07-22T06:46:22;15.03;;;13.63;;
826;SDS011;395;48.132;11.608;2022-07-22T06:48:47;14.83;;;13.17;;
826;SDS011;395;48.132;11.608;2022-07-22T06:51:13;14.63;;;13.30;;
826;SDS011;395;48.132;11.608;2022-07-22T06:53:40;14.40;;;12.90;;
826;SDS011;395;48.132;11.608;2022-07-22T06:56:05;13.37;;;12.10;;
826;SDS011;395;48.132;11.608;2022-07-22T06:58:31;15.23;;;12.57;;
826;SDS011;395;48.132;11.608;2022-07-22T07:00:57;16.20;;;12.00;;
826;SDS011;395;48.132;11.608;2022-07-22T07:03:23;13.87;;;12.60;;
826;SDS011;395;48.132;11.608;2022-07-22T07:05:50;13.20;;;11.97;;
826;SDS011;395;48.132;11.608;2022-07-22T07:08:17;14.17;;;12.77;;
826;SDS011;395;48.132;11.608;2022-07-22T07:10:42;14.63;;;13.30;;
826;SDS011;395;48.132;11.608;2022-07-22T07:13:08;14.13;;;12.80;;
826;SDS011;395;48.132;11.608;2022-07-22T07:15:34;14.07;;;12.70;;
826;SDS011;395;48.132;11.608;2022-07-22T07:18:00;13.77;;;12.60;;
826;SDS011;395;48.132;11.608;2022-07-22T07:20:26;13.67;;;12.43;;
826;SDS011;395;48.132;11.608;2022-07-22T07:22:51;14.97;;;12.53;;
826;SDS011;395;48.132;11.608;2022-07-22T07:25:17;14.40;;;13.07;;
826;SDS011;395;48.132;11.608;2022-07-22T07:27:43;12.40;;;11.40;;
826;SDS011;395;48.132;11.608;2022-07-22T07:30:09;13.57;;;12.37;;
826;SDS011;395;48.132;11.608;2022-07-22T07:32:35;14.30;;;12.77;;
826;SDS011;395;48.132;11.608;2022-07-22T07:35:02;13.03;;;11.93;;
826;SDS011;395;48.132;11.608;2022-07-22T07:37:30;14.17;;;12.60;;
826;SDS011;395;48.132;11.608;2022-07-22T07:39:56;12.97;;;11.87;;
826;SDS011;395;48.132;11.608;2022-07-22T07:42:21;13.17;;;11.87;;
826;SDS011;395;48.132;11.608;2022-07-22T07:44:47;12.07;;;11.07;;
826;SDS011;395;48.132;11.608;2022-07-22T07:47:13;12.77;;;11.70;;
826;SDS011;395;48.132;11.608;2022-07-22T07:49:42;13.50;;;12.30;;
826;SDS011;395;48.132;11.608;2022-07-22T07:52:09;12.80;;;11.70;;
826;SDS011;395;48.132;11.608;2022-07-22T07:54:37;15.00;;;12.00;;
826;SDS011;395;48.132;11.608;2022-07-22T07:57:05;12.50;;;11.37;;
826;SDS011;395;48.132;11.608;2022-07-22T07:59:31;13.60;;;12.20;;
826;SDS011;395;48.132;11.608;2022-07-22T08:01:57;13.93;;;12.00;;
826;SDS011;395;48.132;11.608;2022-07-22T08:04:23;14.50;;;12.40;;
826;SDS011;395;48.132;11.608;2022-07-22T08:06:48;13.40;;;12.20;;
826;SDS011;395;48.132;11.608;2022-07-22T08:09:14;14.10;;;12.60;;
826;SDS011;395;48.132;11.608;2022-07-22T08:11:40;13.13;;;11.93;;
826;SDS011;395;48.132;11.608;2022-07-22T08:14:06;13.80;;;12.50;;
826;SDS011;395;48.132;11.608;2022-07-22T08:16:31;14.03;;;12.63;;
826;SDS011;395;48.132;11.608;2022-07-22T08:18:57;14.00;;;11.73;;
826;SDS011;395;48.132;11.608;2022-07-22T08:21:23;12.70;;;11.50;;
826;SDS011;395;48.132;11.608;2022-07-22T08:23:50;10.50;;;9.50;;
826;SDS011;395;48.132;11.608;2022-07-22T08:26:17;11.50;;;10.50;;
826;SDS011;395;48.132;11.608;2022-07-22T08:28:42;14.93;;;11.43;;
826;SDS011;395;48.132;11.608;2022-07-22T08:31:08;15.37;;;12.70;;
826;SDS011;395;48.132;11.608;2022-07-22T08:33:34;12.30;;;11.20;;
826;SDS011;395;48.132;11.608;2022-07-22T08:36:00;12.27;;;11.07;;
826;SDS011;395;48.132;11.608;2022-07-22T08:38:26;12.50;;;10.57;;
826;SDS011;395;48.132;11.608;2022-07-22T08:40:53;16.60;;;12.13;;
826;SDS011;395;48.132;11.608;2022-07-22T08:43:20;17.80;;;12.80;;
826;SDS011;395;48.132;11.608;2022-07-22T08:45:46;12.50;;;11.20;;
826;SDS011;395;48.132;11.608;2022-07-22T08:48:13;11.67;;;10.67;;
826;SDS011;395;48.132;11.608;2022-07-22T08:50:39;11.97;;;10.83;;
826;SDS011;395;48.132;11.608;2022-07-22T08:53:08;12.27;;;11.20;;
826;SDS011;395;48.132;11.608;2022-07-22T08:55:39;12.77;;;11.57;;
826;SDS011;395;48.132;11.608;2022-07-22T08:58:09;11.20;;;10.10;;
826;SDS011;395;48.132;11.608;2022-07-22T09:00:35;14.00;;;11.07;;
826;SDS011;395;48.132;11.608;2022-07-22T09:03:03;11.33;;;10.20;;
826;SDS011;395;48.132;11.608;2022-07-22T09:05:47;11.63;;;10.63;;
826;SDS011;395;48.132;11.608;2022-07-22T09:08:13;11.20;;;10.30;;
826;SDS011;395;48.132;11.608;2022-07-22T09:10:39;12.50;;;11.40;;
826;SDS011;395;48.132;11.608;2022-07-22T09:13:06;10.97;;;9.60;;
826;SDS011;395;48.132;11.608;2022-07-22T09:15:36;9.87;;;9.00;;
826;SDS011;395;48.132;11.608;2022-07-22T09:18:06;11.20;;;10.30;;
826;SDS011;395;48.132;11.608;2022-07-22T09:20:33;10.80;;;9.30;;
826;SDS011;395;48.132;11.608;2022-07-22T09:23:00;9.83;;;8.93;;
826;SDS011;395;48.132;11.608;2022-07-22T09:30:32;10.00;;;9.10;;
826;SDS011;395;48.132;11.608;2022-07-22T09:32:59;10.97;;;9.80;;
826;SDS011;395;48.132;11.608;2022-07-22T09:35:26;11.03;;;9.60;;
826;SDS011;395;48.132;11.608;2022-07-22T09:37:55;9.37;;;8.57;;
826;SDS011;395;48.132;11.608;2022-07-22T09:40:26;8.87;;;8.27;;
826;SDS011;395;48.132;11.608;2022-07-22T09:43:03;10.13;;;9.20;;
826;SDS011;395;48.132;11.608;2022-07-22T09:48:15;9.03;;;8.13;;
826;SDS011;395;48.132;11.608;2022-07-22T09:50:42;9.70;;;8.70;;
826;SDS011;395;48.132;11.608;2022-07-22T09:53:08;10.70;;;9.70;;
826;SDS011;395;48.132;11.608;2022-07-22T09:55:34;10.03;;;9.10;;
826;SDS011;395;48.132;11.608;2022-07-22T09:58:04;9.57;;;8.77;;
826;SDS011;395;48.132;11.608;2022-07-22T10:00:32;9.87;;;8.90;;
826;SDS011;395;48.132;11.608;2022-07-22T10:03:01;9.00;;;8.30;;
826;SDS011;395;48.132;11.608;2022-07-22T10:05:30;10.13;;;9.20;;
826;SDS011;395;48.132;11.608;2022-07-22T10:07:58;9.10;;;8.23;;
826;SDS011;395;48.132;11.608;2022-07-22T10:10:27;9.30;;;8.27;;
826;SDS011;395;48.132;11.608;2022-07-22T10:12:54;10.70;;;9.70;;
826;SDS011;395;48.132;11.608;2022-07-22T10:15:22;10.63;;;9.40;;
826;SDS011;395;48.132;11.608;2022-07-22T10:17:50;10.77;;;9.97;;
826;SDS011;395;48.132;11.608;2022-07-22T10:20:18;10.20;;;9.30;;
826;SDS011;395;48.132;11.608;2022-07-22T10:25:14;13.30;;;8.90;;
826;SDS011;395;48.132;11.608;2022-07-22T10:30:13;9.37;;;8.43;;
826;SDS011;395;48.132;11.608;2022-07-22T10:32:40;9.17;;;8.30;;
826;SDS011;395;48.132;11.608;2022-07-22T10:40:13;9.20;;;8.40;;
826;SDS011;395;48.132;11.608;2022-07-22T10:45:25;10.27;;;9.40;;
826;SDS011;395;48.132;11.608;2022-07-22T10:48:15;10.30;;;9.30;;
826;SDS011;395;48.132;11.608;2022-07-22T10:51:07;10.20;;;9.37;;
826;SDS011;395;48.132;11.608;2022-07-22T10:53:56;10.23;;;9.33;;
826;SDS011;395;48.132;11.608;2022-07-22T10:56:34;9.90;;;9.10;;
826;SDS011;395;48.132;11.608;2022-07-22T10:59:10;10.23;;;9.13;;
826;SDS011;395;48.132;11.608;2022-07-22T11:01:39;10.27;;;9.27;;
826;SDS011;395;48.132;11.608;2022-07-22T11:04:10;10.23;;;9.23;;
826;SDS011;395;48.132;11.608;2022-07-22T11:06:37;9.53;;;8.77;;
826;SDS011;395;48.132;11.608;2022-07-22T11:09:04;13.73;;;9.70;;
826;SDS011;395;48.132;11.608;2022-07-22T11:11:32;10.27;;;9.27;;
826;SDS011;395;48.132;11.608;2022-07-22T11:14:00;10.87;;;9.73;;
826;SDS011;395;48.132;11.608;2022-07-22T11:16:29;10.43;;;9.43;;
826;SDS011;395;48.132;11.608;2022-07-22T11:18:58;10.50;;;9.60;;
826;SDS011;395;48.132;11.608;2022-07-22T11:21:28;10.30;;;9.40;;
826;SDS011;395;48.132;11.608;2022-07-22T11:23:56;10.30;;;9.37;;
826;SDS011;395;48.132;11.608;2022-07-22T11:26:37;10.30;;;9.50;;
826;SDS011;395;48.132;11.608;2022-07-22T11:29:10;10.33;;;9.40;;
826;SDS011;395;48.132;11.608;2022-07-22T11:31:41;9.00;;;8.30;;
826;SDS011;395;48.132;11.608;2022-07-22T11:34:08;11.20;;;10.30;;
826;SDS011;395;48.132;11.608;2022-07-22T11:36:37;10.57;;;9.57;;
826;SDS011;395;48.132;11.608;2022-07-22T11:39:05;9.47;;;8.70;;
826;SDS011;395;48.132;11.608;2022-07-22T11:41:31;9.77;;;8.97;;
826;SDS011;395;48.132;11.608;2022-07-22T11:43:58;9.67;;;8.50;;
826;SDS011;395;48.132;11.608;2022-07-22T11:46:27;10.77;;;9.63;;
826;SDS011;395;48.132;11.608;2022-07-22T11:48:59;9.27;;;8.37;;
826;SDS011;395;48.132;11.608;2022-07-22T11:51:29;10.53;;;9.50;;
826;SDS011;395;48.132;11.608;2022-07-22T11:53:56;11.10;;;9.20;;
826;SDS011;395;48.132;11.608;2022-07-22T11:56:23;10.07;;;9.27;;
826;SDS011;395;48.132;11.608;2022-07-22T11:58:49;10.43;;;9.50;;
826;SDS011;395;48.132;11.608;2022-07-22T12:01:19;9.77;;;8.87;;
826;SDS011;395;48.132;11.608;2022-07-22T12:03:50;10.20;;;9.30;;
826;SDS011;395;48.132;11.608;2022-07-22T12:06:18;9.80;;;8.90;;
826;SDS011;395;48.132;11.608;2022-07-22T12:08:55;10.50;;;9.60;;
826;SDS011;395;48.132;11.608;2022-07-22T12:11:27;10.37;;;9.37;;
826;SDS011;395;48.132;11.608;2022-07-22T12:13:54;9.93;;;9.13;;
826;SDS011;395;48.132;11.608;2022-07-22T12:18:56;9.30;;;8.50;;
826;SDS011;395;48.132;11.608;2022-07-22T12:21:28;11.03;;;9.40;;
826;SDS011;395;48.132;11.608;2022-07-22T12:24:02;10.60;;;9.60;;
826;SDS011;395;48.132;11.608;2022-07-22T12:34:29;9.90;;;9.00;;
826;SDS011;395;48.132;11.608;2022-07-22T12:37:00;10.33;;;9.43;;
826;SDS011;395;48.132;11.608;2022-07-22T12:39:51;10.60;;;9.63;;
826;SDS011;395;48.132;11.608;2022-07-22T12:42:17;10.50;;;9.50;;
826;SDS011;395;48.132;11.608;2022-07-22T12:53:07;9.90;;;9.00;;
826;SDS011;395;48.132;11.608;2022-07-22T12:55:37;11.43;;;10.33;;
826;SDS011;395;48.132;11.608;2022-07-22T12:58:04;9.87;;;9.10;;
826;SDS011;395;48.132;11.608;2022-07-22T13:00:35;11.23;;;10.07;;
826;SDS011;395;48.132;11.608;2022-07-22T13:03:01;10.70;;;9.90;;
826;SDS011;395;48.132;11.608;2022-07-22T13:05:28;10.13;;;9.13;;
826;SDS011;395;48.132;11.608;2022-07-22T13:07:53;11.77;;;10.67;;
826;SDS011;395;48.132;11.608;2022-07-22T13:10:20;11.27;;;10.37;;
826;SDS011;395;48.132;11.608;2022-07-22T13:12:47;10.57;;;9.77;;
826;SDS011;395;48.132;11.608;2022-07-22T13:15:14;10.23;;;9.43;;
826;SDS011;395;48.132;11.608;2022-07-22T13:17:40;10.40;;;9.50;;
826;SDS011;395;48.132;11.608;2022-07-22T13:20:07;11.23;;;10.33;;
826;SDS011;395;48.132;11.608;2022-07-22T13:22:34;10.33;;;9.53;;
826;SDS011;395;48.132;11.608;2022-07-22T13:25:00;10.57;;;9.77;;
826;SDS011;395;48.132;11.608;2022-07-22T13:27:26;11.27;;;10.37;;
826;SDS011;395;48.132;11.608;2022-07-22T13:29:52;11.13;;;10.30;;
826;SDS011;395;48.132;11.608;2022-07-22T13:32:18;11.97;;;10.93;;
826;SDS011;395;48.132;11.608;2022-07-22T13:34:43;10.83;;;9.90;;
826;SDS011;395;48.132;11.608;2022-07-22T13:37:09;10.73;;;9.93;;
826;SDS011;395;48.132;11.608;2022-07-22T13:39:35;10.70;;;9.70;;
826;SDS011;395;48.132;11.608;2022-07-22T13:42:01;10.37;;;9.47;;
826;SDS011;395;48.132;11.608;2022-07-22T13:44:27;10.20;;;9.30;;
826;SDS011;395;48.132;11.608;2022-07-22T13:46:56;10.20;;;9.40;;
826;SDS011;395;48.132;11.608;2022-07-22T13:49:23;10.43;;;9.43;;
826;SDS011;395;48.132;11.608;2022-07-22T13:51:50;11.13;;;10.03;;
826;SDS011;395;48.132;11.608;2022-07-22T13:54:17;10.90;;;10.00;;
826;SDS011;395;48.132;11.608;2022-07-22T13:56:43;9.87;;;8.97;;
826;SDS011;395;48.132;11.608;2022-07-22T13:59:12;10.30;;;9.43;;
826;SDS011;395;48.132;11.608;2022-07-22T14:01:40;11.33;;;10.43;;
826;SDS011;395;48.132;11.608;2022-07-22T14:04:06;9.80;;;9.00;;
826;SDS011;395;48.132;11.608;2022-07-22T14:06:32;11.40;;;10.43;;
826;SDS011;395;48.132;11.608;2022-07-22T14:08:59;11.40;;;10.40;;
826;SDS011;395;48.132;11.608;2022-07-22T14:11:25;10.90;;;10.00;;
826;SDS011;395;48.132;11.608;2022-07-22T14:13:53;10.33;;;9.53;;
826;SDS011;395;48.132;11.608;2022-07-22T14:16:19;11.07;;;9.90;;
826;SDS011;395;48.132;11.608;2022-07-22T14:21:27;10.67;;;9.77;;
826;SDS011;395;48.132;11.608;2022-07-22T14:23:53;10.30;;;9.40;;
826;SDS011;395;48.132;11.608;2022-07-22T14:26:19;10.93;;;10.07;;
826;SDS011;395;48.132;11.608;2022-07-22T14:28:45;11.07;;;9.90;;
826;SDS011;395;48.132;11.608;2022-07-22T14:31:11;11.37;;;10.47;;
826;SDS011;395;48.132;11.608;2022-07-22T14:33:37;10.47;;;9.57;;
826;SDS011;395;48.132;11.608;2022-07-22T14:36:03;11.00;;;10.00;;
826;SDS011;395;48.132;11.608;2022-07-22T14:38:28;10.80;;;9.90;;
826;SDS011;395;48.132;11.608;2022-07-22T14:40:54;12.07;;;10.73;;
826;SDS011;395;48.132;11.608;2022-07-22T14:43:20;11.67;;;10.77;;
826;SDS011;395;48.132;11.608;2022-07-22T14:45:46;12.60;;;11.47;;
826;SDS011;395;48.132;11.608;2022-07-22T14:48:11;12.80;;;11.50;;
826;SDS011;395;48.132;11.608;2022-07-22T14:50:37;12.97;;;11.87;;
826;SDS011;395;48.132;11.608;2022-07-22T14:53:03;12.87;;;11.77;;
826;SDS011;395;48.132;11.608;2022-07-22T14:55:29;11.17;;;10.33;;
826;SDS011;395;48.132;11.608;2022-07-22T14:57:54;11.73;;;10.73;;
826;SDS011;395;48.132;11.608;2022-07-22T15:00:20;10.87;;;9.77;;
826;SDS011;395;48.132;11.608;2022-07-22T15:02:45;11.27;;;10.33;;
826;SDS011;395;48.132;11.608;2022-07-22T15:05:11;11.73;;;10.73;;
826;SDS011;395;48.132;11.608;2022-07-22T15:07:37;12.80;;;11.90;;
826;SDS011;395;48.132;11.608;2022-07-22T15:10:03;12.73;;;11.63;;
826;SDS011;395;48.132;11.608;2022-07-22T15:12:29;11.23;;;10.23;;
826;SDS011;395;48.132;11.608;2022-07-22T15:14:54;11.60;;;10.50;;
826;SDS011;395;48.132;11.608;2022-07-22T15:17:20;11.33;;;10.43;;
826;SDS011;395;48.132;11.608;2022-07-22T15:19:46;12.77;;;10.33;;
826;SDS011;395;48.132;11.608;2022-07-22T15:22:11;10.87;;;9.90;;
826;SDS011;395;48.132;11.608;2022-07-22T15:24:37;12.87;;;11.90;;
826;SDS011;395;48.132;11.608;2022-07-22T15:27:03;13.20;;;12.20;;
826;SDS011;395;48.132;11.608;2022-07-22T15:29:28;12.50;;;11.30;;
826;SDS011;395;48.132;11.608;2022-07-22T15:31:54;10.97;;;10.03;;
826;SDS011;395;48.132;11.608;2022-07-22T15:34:20;11.30;;;10.30;;
826;SDS011;395;48.132;11.608;2022-07-22T15:36:45;11.60;;;10.60;;
826;SDS011;395;48.132;11.608;2022-07-22T15:39:11;12.20;;;11.20;;
826;SDS011;395;48.132;11.608;2022-07-22T15:41:38;10.73;;;9.93;;
826;SDS011;395;48.132;11.608;2022-07-22T15:44:05;11.47;;;10.60;;
826;SDS011;395;48.132;11.608;2022-07-22T15:46:32;11.27;;;10.47;;
826;SDS011;395;48.132;11.608;2022-07-22T15:48:58;11.10;;;10.30;;